sensor_id;sensor_type;location;lat;lon;timestamp;P1;durP1;ratioP1;P2;durP2;ratioP2
78120;SDS011;67585;44.802;10.332;2024-02-14T00:00:10;26.70;;;9.98;;
78120;SDS011;67585;44.802;10.332;2024-02-14T00:02:46;23.15;;;8.43;;
78120;SDS011;67585;44.802;10.332;2024-02-14T00:05:14;18.13;;;7.25;;
78120;SDS011;67585;44.802;10.332;2024-02-14T00:07:40;21.10;;;9.00;;
78120;SDS011;67585;44.802;10.332;2024-02-14T00:10:06;23.08;;;9.13;;
78120;SDS011;67585;44.802;10.332;2024-02-14T00:12:32;24.85;;;9.43;;
78120;SDS011;67585;44.802;10.332;2024-02-14T00:14:58;22.63;;;8.13;;
78120;SDS011;67585;44.802;10.332;2024-02-14T00:17:23;21.67;;;9.15;;
78120;SDS011;67585;44.802;10.332;2024-02-14T00:19:50;25.85;;;9.38;;
78120;SDS011;67585;44.802;10.332;2024-02-14T00:22:15;22.75;;;8.90;;
78120;SDS011;67585;44.802;10.332;2024-02-14T00:24:41;27.55;;;9.82;;
78120;SDS011;67585;44.802;10.332;2024-02-14T00:27:07;28.60;;;10.32;;
78120;SDS011;67585;44.802;10.332;2024-02-14T00:29:32;26.40;;;9.90;;
78120;SDS011;67585;44.802;10.332;2024-02-14T00:31:59;30.65;;;9.98;;
78120;SDS011;67585;44.802;10.332;2024-02-14T00:34:25;26.67;;;10.18;;
78120;SDS011;67585;44.802;10.332;2024-02-14T00:36:50;21.30;;;8.88;;
78120;SDS011;67585;44.802;10.332;2024-02-14T00:39:16;24.40;;;9.30;;
78120;SDS011;67585;44.802;10.332;2024-02-14T00:41:41;17.98;;;7.35;;
78120;SDS011;67585;44.802;10.332;2024-02-14T00:44:06;22.60;;;7.28;;
78120;SDS011;67585;44.802;10.332;2024-02-14T00:46:32;22.90;;;6.97;;
78120;SDS011;67585;44.802;10.332;2024-02-14T00:48:57;22.38;;;7.03;;
78120;SDS011;67585;44.802;10.332;2024-02-14T00:51:22;19.30;;;6.68;;
78120;SDS011;67585;44.802;10.332;2024-02-14T00:53:48;17.70;;;7.43;;
78120;SDS011;67585;44.802;10.332;2024-02-14T00:56:13;22.92;;;7.38;;
78120;SDS011;67585;44.802;10.332;2024-02-14T00:58:38;19.52;;;6.90;;
78120;SDS011;67585;44.802;10.332;2024-02-14T01:01:04;25.35;;;8.35;;
78120;SDS011;67585;44.802;10.332;2024-02-14T01:03:30;19.20;;;7.03;;
78120;SDS011;67585;44.802;10.332;2024-02-14T01:05:55;19.15;;;7.22;;
78120;SDS011;67585;44.802;10.332;2024-02-14T01:08:21;17.70;;;5.82;;
78120;SDS011;67585;44.802;10.332;2024-02-14T01:10:46;15.70;;;5.03;;
78120;SDS011;67585;44.802;10.332;2024-02-14T01:13:12;20.33;;;5.35;;
78120;SDS011;67585;44.802;10.332;2024-02-14T01:15:37;14.73;;;5.25;;
78120;SDS011;67585;44.802;10.332;2024-02-14T01:18:03;12.38;;;3.83;;
78120;SDS011;67585;44.802;10.332;2024-02-14T01:20:28;16.15;;;4.28;;
78120;SDS011;67585;44.802;10.332;2024-02-14T01:22:54;14.57;;;4.70;;
78120;SDS011;67585;44.802;10.332;2024-02-14T01:25:19;11.38;;;2.85;;
78120;SDS011;67585;44.802;10.332;2024-02-14T01:27:45;11.60;;;3.45;;
78120;SDS011;67585;44.802;10.332;2024-02-14T01:30:10;12.20;;;3.97;;
78120;SDS011;67585;44.802;10.332;2024-02-14T01:32:36;15.15;;;3.88;;
78120;SDS011;67585;44.802;10.332;2024-02-14T01:35:02;9.15;;;2.30;;
78120;SDS011;67585;44.802;10.332;2024-02-14T01:37:28;8.63;;;2.83;;
78120;SDS011;67585;44.802;10.332;2024-02-14T01:39:54;11.63;;;4.25;;
78120;SDS011;67585;44.802;10.332;2024-02-14T01:42:19;9.10;;;2.58;;
78120;SDS011;67585;44.802;10.332;2024-02-14T01:44:45;11.23;;;2.40;;
78120;SDS011;67585;44.802;10.332;2024-02-14T01:47:10;8.93;;;2.80;;
78120;SDS011;67585;44.802;10.332;2024-02-14T01:49:37;11.85;;;2.40;;
78120;SDS011;67585;44.802;10.332;2024-02-14T01:52:03;9.30;;;2.78;;
78120;SDS011;67585;44.802;10.332;2024-02-14T01:54:30;12.70;;;3.85;;
78120;SDS011;67585;44.802;10.332;2024-02-14T01:56:56;11.55;;;3.03;;
78120;SDS011;67585;44.802;10.332;2024-02-14T01:59:24;10.88;;;3.50;;
78120;SDS011;67585;44.802;10.332;2024-02-14T02:01:49;10.07;;;2.65;;
78120;SDS011;67585;44.802;10.332;2024-02-14T02:06:43;8.20;;;2.83;;
78120;SDS011;67585;44.802;10.332;2024-02-14T02:09:08;10.27;;;2.92;;
78120;SDS011;67585;44.802;10.332;2024-02-14T02:11:46;8.70;;;2.40;;
78120;SDS011;67585;44.802;10.332;2024-02-14T02:14:13;12.07;;;3.13;;
78120;SDS011;67585;44.802;10.332;2024-02-14T02:16:39;8.23;;;2.33;;
78120;SDS011;67585;44.802;10.332;2024-02-14T02:19:04;8.90;;;2.42;;
78120;SDS011;67585;44.802;10.332;2024-02-14T02:21:33;11.70;;;2.60;;
78120;SDS011;67585;44.802;10.332;2024-02-14T02:24:00;9.38;;;3.20;;
78120;SDS011;67585;44.802;10.332;2024-02-14T02:26:25;11.25;;;2.85;;
78120;SDS011;67585;44.802;10.332;2024-02-14T02:28:51;12.40;;;3.58;;
78120;SDS011;67585;44.802;10.332;2024-02-14T02:31:16;13.75;;;5.50;;
78120;SDS011;67585;44.802;10.332;2024-02-14T02:33:42;12.65;;;3.90;;
78120;SDS011;67585;44.802;10.332;2024-02-14T02:36:08;17.73;;;5.35;;
78120;SDS011;67585;44.802;10.332;2024-02-14T02:38:34;14.65;;;4.30;;
78120;SDS011;67585;44.802;10.332;2024-02-14T02:41:01;14.55;;;4.80;;
78120;SDS011;67585;44.802;10.332;2024-02-14T02:43:28;14.43;;;4.43;;
78120;SDS011;67585;44.802;10.332;2024-02-14T02:45:53;15.65;;;4.35;;
78120;SDS011;67585;44.802;10.332;2024-02-14T02:48:19;11.23;;;3.72;;
78120;SDS011;67585;44.802;10.332;2024-02-14T02:50:48;18.92;;;4.68;;
78120;SDS011;67585;44.802;10.332;2024-02-14T02:53:16;12.48;;;4.20;;
78120;SDS011;67585;44.802;10.332;2024-02-14T02:55:42;14.75;;;4.10;;
78120;SDS011;67585;44.802;10.332;2024-02-14T02:58:08;13.25;;;3.55;;
78120;SDS011;67585;44.802;10.332;2024-02-14T03:00:34;11.80;;;2.92;;
78120;SDS011;67585;44.802;10.332;2024-02-14T03:03:00;13.80;;;3.00;;
78120;SDS011;67585;44.802;10.332;2024-02-14T03:05:27;13.43;;;3.40;;
78120;SDS011;67585;44.802;10.332;2024-02-14T03:07:54;12.48;;;3.83;;
78120;SDS011;67585;44.802;10.332;2024-02-14T03:10:22;12.68;;;3.45;;
78120;SDS011;67585;44.802;10.332;2024-02-14T03:12:48;10.70;;;2.85;;
78120;SDS011;67585;44.802;10.332;2024-02-14T03:15:14;10.15;;;3.90;;
78120;SDS011;67585;44.802;10.332;2024-02-14T03:17:40;8.98;;;1.60;;
78120;SDS011;67585;44.802;10.332;2024-02-14T03:20:07;8.13;;;2.58;;
78120;SDS011;67585;44.802;10.332;2024-02-14T03:22:38;8.57;;;2.78;;
78120;SDS011;67585;44.802;10.332;2024-02-14T03:25:08;9.25;;;2.20;;
78120;SDS011;67585;44.802;10.332;2024-02-14T03:27:34;10.25;;;1.65;;
78120;SDS011;67585;44.802;10.332;2024-02-14T03:30:00;7.85;;;1.85;;
78120;SDS011;67585;44.802;10.332;2024-02-14T03:32:27;8.02;;;1.67;;
78120;SDS011;67585;44.802;10.332;2024-02-14T03:34:53;9.65;;;2.20;;
78120;SDS011;67585;44.802;10.332;2024-02-14T03:37:19;9.32;;;2.33;;
78120;SDS011;67585;44.802;10.332;2024-02-14T03:39:44;7.15;;;1.60;;
78120;SDS011;67585;44.802;10.332;2024-02-14T03:42:10;6.72;;;1.55;;
78120;SDS011;67585;44.802;10.332;2024-02-14T03:44:36;7.63;;;1.70;;
78120;SDS011;67585;44.802;10.332;2024-02-14T03:47:03;11.63;;;1.60;;
78120;SDS011;67585;44.802;10.332;2024-02-14T03:49:29;9.38;;;2.08;;
78120;SDS011;67585;44.802;10.332;2024-02-14T03:51:56;10.93;;;2.50;;
78120;SDS011;67585;44.802;10.332;2024-02-14T03:54:21;9.43;;;2.65;;
78120;SDS011;67585;44.802;10.332;2024-02-14T03:56:48;10.88;;;2.40;;
78120;SDS011;67585;44.802;10.332;2024-02-14T03:59:13;6.88;;;1.42;;
78120;SDS011;67585;44.802;10.332;2024-02-14T04:01:43;7.75;;;1.33;;
78120;SDS011;67585;44.802;10.332;2024-02-14T04:04:10;8.80;;;1.80;;
78120;SDS011;67585;44.802;10.332;2024-02-14T04:06:35;6.63;;;1.60;;
78120;SDS011;67585;44.802;10.332;2024-02-14T04:09:00;7.95;;;1.52;;
78120;SDS011;67585;44.802;10.332;2024-02-14T04:11:26;6.68;;;2.22;;
78120;SDS011;67585;44.802;10.332;2024-02-14T04:13:51;6.18;;;0.95;;
78120;SDS011;67585;44.802;10.332;2024-02-14T04:16:20;6.68;;;1.33;;
78120;SDS011;67585;44.802;10.332;2024-02-14T04:18:46;8.48;;;1.33;;
78120;SDS011;67585;44.802;10.332;2024-02-14T04:21:12;7.00;;;1.27;;
78120;SDS011;67585;44.802;10.332;2024-02-14T04:23:37;8.27;;;1.30;;
78120;SDS011;67585;44.802;10.332;2024-02-14T04:26:04;6.57;;;1.20;;
78120;SDS011;67585;44.802;10.332;2024-02-14T04:28:29;7.50;;;1.15;;
78120;SDS011;67585;44.802;10.332;2024-02-14T04:30:55;6.68;;;1.50;;
78120;SDS011;67585;44.802;10.332;2024-02-14T04:33:21;6.05;;;0.82;;
78120;SDS011;67585;44.802;10.332;2024-02-14T04:35:47;4.75;;;0.73;;
78120;SDS011;67585;44.802;10.332;2024-02-14T04:38:12;4.20;;;0.47;;
78120;SDS011;67585;44.802;10.332;2024-02-14T04:40:38;3.22;;;0.43;;
78120;SDS011;67585;44.802;10.332;2024-02-14T04:43:04;6.57;;;1.00;;
78120;SDS011;67585;44.802;10.332;2024-02-14T04:45:30;7.55;;;1.25;;
78120;SDS011;67585;44.802;10.332;2024-02-14T04:47:55;5.38;;;0.70;;
78120;SDS011;67585;44.802;10.332;2024-02-14T04:50:21;4.63;;;1.00;;
78120;SDS011;67585;44.802;10.332;2024-02-14T04:52:46;5.70;;;0.88;;
78120;SDS011;67585;44.802;10.332;2024-02-14T04:55:12;6.45;;;1.02;;
78120;SDS011;67585;44.802;10.332;2024-02-14T04:57:37;4.85;;;1.20;;
78120;SDS011;67585;44.802;10.332;2024-02-14T05:00:04;5.68;;;0.93;;
78120;SDS011;67585;44.802;10.332;2024-02-14T05:02:30;5.88;;;0.68;;
78120;SDS011;67585;44.802;10.332;2024-02-14T05:04:56;4.20;;;0.95;;
78120;SDS011;67585;44.802;10.332;2024-02-14T05:07:21;5.60;;;1.63;;
78120;SDS011;67585;44.802;10.332;2024-02-14T05:09:47;5.88;;;1.10;;
78120;SDS011;67585;44.802;10.332;2024-02-14T05:12:15;5.63;;;0.90;;
78120;SDS011;67585;44.802;10.332;2024-02-14T05:14:40;7.82;;;1.10;;
78120;SDS011;67585;44.802;10.332;2024-02-14T05:17:07;5.70;;;1.65;;
78120;SDS011;67585;44.802;10.332;2024-02-14T05:19:33;6.72;;;0.68;;
78120;SDS011;67585;44.802;10.332;2024-02-14T05:21:58;5.40;;;0.80;;
78120;SDS011;67585;44.802;10.332;2024-02-14T05:24:24;7.95;;;1.85;;
78120;SDS011;67585;44.802;10.332;2024-02-14T05:26:52;2.83;;;0.40;;
78120;SDS011;67585;44.802;10.332;2024-02-14T05:29:18;6.13;;;1.10;;
78120;SDS011;67585;44.802;10.332;2024-02-14T05:31:45;7.43;;;1.52;;
78120;SDS011;67585;44.802;10.332;2024-02-14T05:34:13;6.05;;;0.80;;
78120;SDS011;67585;44.802;10.332;2024-02-14T05:36:39;4.57;;;0.52;;
78120;SDS011;67585;44.802;10.332;2024-02-14T05:39:04;6.10;;;0.52;;
78120;SDS011;67585;44.802;10.332;2024-02-14T05:41:33;3.95;;;1.13;;
78120;SDS011;67585;44.802;10.332;2024-02-14T05:43:59;4.88;;;0.63;;
78120;SDS011;67585;44.802;10.332;2024-02-14T05:46:25;9.63;;;1.70;;
78120;SDS011;67585;44.802;10.332;2024-02-14T05:48:50;6.90;;;1.27;;
78120;SDS011;67585;44.802;10.332;2024-02-14T05:51:17;6.28;;;1.80;;
78120;SDS011;67585;44.802;10.332;2024-02-14T05:53:42;9.15;;;0.82;;
78120;SDS011;67585;44.802;10.332;2024-02-14T05:56:08;8.35;;;0.75;;
78120;SDS011;67585;44.802;10.332;2024-02-14T05:58:33;5.60;;;1.02;;
78120;SDS011;67585;44.802;10.332;2024-02-14T06:00:58;5.03;;;0.93;;
78120;SDS011;67585;44.802;10.332;2024-02-14T06:03:24;7.55;;;1.45;;
78120;SDS011;67585;44.802;10.332;2024-02-14T06:05:49;3.95;;;0.52;;
78120;SDS011;67585;44.802;10.332;2024-02-14T06:08:15;9.50;;;0.98;;
78120;SDS011;67585;44.802;10.332;2024-02-14T06:10:40;9.00;;;1.08;;
78120;SDS011;67585;44.802;10.332;2024-02-14T06:13:05;3.45;;;0.85;;
78120;SDS011;67585;44.802;10.332;2024-02-14T06:15:31;4.50;;;0.20;;
78120;SDS011;67585;44.802;10.332;2024-02-14T06:17:56;3.17;;;0.95;;
78120;SDS011;67585;44.802;10.332;2024-02-14T06:20:22;5.82;;;1.25;;
78120;SDS011;67585;44.802;10.332;2024-02-14T06:22:48;4.82;;;0.95;;
78120;SDS011;67585;44.802;10.332;2024-02-14T06:25:13;5.18;;;0.80;;
78120;SDS011;67585;44.802;10.332;2024-02-14T06:27:39;5.97;;;0.47;;
78120;SDS011;67585;44.802;10.332;2024-02-14T06:30:04;6.07;;;1.25;;
78120;SDS011;67585;44.802;10.332;2024-02-14T06:32:30;5.80;;;1.27;;
78120;SDS011;67585;44.802;10.332;2024-02-14T06:34:55;8.55;;;0.88;;
78120;SDS011;67585;44.802;10.332;2024-02-14T06:37:21;8.55;;;0.45;;
78120;SDS011;67585;44.802;10.332;2024-02-14T06:39:46;5.00;;;0.98;;
78120;SDS011;67585;44.802;10.332;2024-02-14T06:42:13;10.32;;;0.90;;
78120;SDS011;67585;44.802;10.332;2024-02-14T06:44:39;5.93;;;0.63;;
78120;SDS011;67585;44.802;10.332;2024-02-14T06:47:05;3.55;;;0.60;;
78120;SDS011;67585;44.802;10.332;2024-02-14T06:49:30;4.80;;;0.90;;
78120;SDS011;67585;44.802;10.332;2024-02-14T06:51:56;7.70;;;0.77;;
78120;SDS011;67585;44.802;10.332;2024-02-14T06:54:21;9.73;;;1.90;;
78120;SDS011;67585;44.802;10.332;2024-02-14T06:56:47;7.35;;;2.05;;
78120;SDS011;67585;44.802;10.332;2024-02-14T06:59:13;7.57;;;1.90;;
78120;SDS011;67585;44.802;10.332;2024-02-14T07:01:38;12.38;;;1.55;;
78120;SDS011;67585;44.802;10.332;2024-02-14T07:04:04;15.60;;;1.88;;
78120;SDS011;67585;44.802;10.332;2024-02-14T07:06:30;6.32;;;1.40;;
78120;SDS011;67585;44.802;10.332;2024-02-14T07:08:55;6.30;;;1.42;;
78120;SDS011;67585;44.802;10.332;2024-02-14T07:11:21;9.20;;;1.77;;
78120;SDS011;67585;44.802;10.332;2024-02-14T07:13:46;6.63;;;1.30;;
78120;SDS011;67585;44.802;10.332;2024-02-14T07:16:12;9.88;;;1.10;;
78120;SDS011;67585;44.802;10.332;2024-02-14T07:18:37;11.85;;;1.33;;
78120;SDS011;67585;44.802;10.332;2024-02-14T07:21:02;9.65;;;1.33;;
78120;SDS011;67585;44.802;10.332;2024-02-14T07:23:31;8.25;;;0.75;;
78120;SDS011;67585;44.802;10.332;2024-02-14T07:25:57;10.55;;;1.35;;
78120;SDS011;67585;44.802;10.332;2024-02-14T07:28:23;10.10;;;1.63;;
78120;SDS011;67585;44.802;10.332;2024-02-14T07:30:48;6.78;;;1.40;;
78120;SDS011;67585;44.802;10.332;2024-02-14T07:33:15;6.53;;;1.95;;
78120;SDS011;67585;44.802;10.332;2024-02-14T07:35:40;8.10;;;1.50;;
78120;SDS011;67585;44.802;10.332;2024-02-14T07:38:06;20.70;;;2.47;;
78120;SDS011;67585;44.802;10.332;2024-02-14T07:40:31;8.85;;;1.58;;
78120;SDS011;67585;44.802;10.332;2024-02-14T07:42:58;11.65;;;2.15;;
78120;SDS011;67585;44.802;10.332;2024-02-14T07:45:23;9.85;;;1.85;;
78120;SDS011;67585;44.802;10.332;2024-02-14T07:47:52;12.10;;;2.17;;
78120;SDS011;67585;44.802;10.332;2024-02-14T07:50:17;9.38;;;3.22;;
78120;SDS011;67585;44.802;10.332;2024-02-14T07:52:43;12.68;;;3.25;;
78120;SDS011;67585;44.802;10.332;2024-02-14T07:55:09;12.98;;;3.35;;
78120;SDS011;67585;44.802;10.332;2024-02-14T07:57:38;11.23;;;3.60;;
78120;SDS011;67585;44.802;10.332;2024-02-14T08:00:05;16.50;;;2.50;;
78120;SDS011;67585;44.802;10.332;2024-02-14T08:02:33;12.65;;;3.38;;
78120;SDS011;67585;44.802;10.332;2024-02-14T08:04:58;10.07;;;3.28;;
78120;SDS011;67585;44.802;10.332;2024-02-14T08:07:24;18.48;;;4.45;;
78120;SDS011;67585;44.802;10.332;2024-02-14T08:09:49;16.27;;;3.33;;
78120;SDS011;67585;44.802;10.332;2024-02-14T08:12:14;8.38;;;2.85;;
78120;SDS011;67585;44.802;10.332;2024-02-14T08:14:40;11.95;;;3.00;;
78120;SDS011;67585;44.802;10.332;2024-02-14T08:17:05;10.93;;;2.00;;
78120;SDS011;67585;44.802;10.332;2024-02-14T08:19:31;11.93;;;3.30;;
78120;SDS011;67585;44.802;10.332;2024-02-14T08:21:56;8.15;;;1.58;;
78120;SDS011;67585;44.802;10.332;2024-02-14T08:24:26;5.55;;;1.23;;
78120;SDS011;67585;44.802;10.332;2024-02-14T08:26:52;11.55;;;1.77;;
78120;SDS011;67585;44.802;10.332;2024-02-14T08:29:18;9.50;;;2.10;;
78120;SDS011;67585;44.802;10.332;2024-02-14T08:31:44;8.30;;;1.52;;
78120;SDS011;67585;44.802;10.332;2024-02-14T08:34:09;10.52;;;2.10;;
78120;SDS011;67585;44.802;10.332;2024-02-14T08:36:35;10.43;;;1.60;;
78120;SDS011;67585;44.802;10.332;2024-02-14T08:39:06;15.07;;;1.55;;
78120;SDS011;67585;44.802;10.332;2024-02-14T08:41:32;11.20;;;2.53;;
78120;SDS011;67585;44.802;10.332;2024-02-14T08:43:57;7.72;;;2.05;;
78120;SDS011;67585;44.802;10.332;2024-02-14T08:46:23;10.00;;;2.97;;
78120;SDS011;67585;44.802;10.332;2024-02-14T08:48:50;9.55;;;2.53;;
78120;SDS011;67585;44.802;10.332;2024-02-14T08:51:16;12.38;;;4.05;;
78120;SDS011;67585;44.802;10.332;2024-02-14T08:53:41;11.88;;;3.15;;
78120;SDS011;67585;44.802;10.332;2024-02-14T08:56:08;11.95;;;2.58;;
78120;SDS011;67585;44.802;10.332;2024-02-14T08:58:34;9.63;;;1.90;;
78120;SDS011;67585;44.802;10.332;2024-02-14T09:01:00;9.55;;;2.78;;
78120;SDS011;67585;44.802;10.332;2024-02-14T09:03:26;12.77;;;4.30;;
78120;SDS011;67585;44.802;10.332;2024-02-14T09:05:51;9.57;;;4.22;;
78120;SDS011;67585;44.802;10.332;2024-02-14T09:08:18;10.43;;;3.70;;
78120;SDS011;67585;44.802;10.332;2024-02-14T09:10:45;11.50;;;3.70;;
78120;SDS011;67585;44.802;10.332;2024-02-14T09:13:11;12.45;;;5.30;;
78120;SDS011;67585;44.802;10.332;2024-02-14T09:15:36;11.82;;;4.32;;
78120;SDS011;67585;44.802;10.332;2024-02-14T09:18:02;10.95;;;3.65;;
78120;SDS011;67585;44.802;10.332;2024-02-14T09:20:28;14.82;;;4.43;;
78120;SDS011;67585;44.802;10.332;2024-02-14T09:22:55;12.23;;;4.97;;
78120;SDS011;67585;44.802;10.332;2024-02-14T09:25:20;14.57;;;5.50;;
78120;SDS011;67585;44.802;10.332;2024-02-14T09:27:49;11.45;;;5.50;;
78120;SDS011;67585;44.802;10.332;2024-02-14T09:30:14;11.65;;;4.72;;
78120;SDS011;67585;44.802;10.332;2024-02-14T09:32:42;13.15;;;4.70;;
78120;SDS011;67585;44.802;10.332;2024-02-14T09:35:08;16.13;;;4.47;;
78120;SDS011;67585;44.802;10.332;2024-02-14T09:37:34;10.60;;;4.72;;
78120;SDS011;67585;44.802;10.332;2024-02-14T09:39:59;13.15;;;4.47;;
78120;SDS011;67585;44.802;10.332;2024-02-14T09:42:28;10.48;;;3.60;;
78120;SDS011;67585;44.802;10.332;2024-02-14T09:45:08;10.30;;;3.65;;
78120;SDS011;67585;44.802;10.332;2024-02-14T09:47:34;9.35;;;3.92;;
78120;SDS011;67585;44.802;10.332;2024-02-14T09:50:02;9.68;;;3.95;;
78120;SDS011;67585;44.802;10.332;2024-02-14T09:52:28;13.98;;;4.00;;
78120;SDS011;67585;44.802;10.332;2024-02-14T09:54:56;12.23;;;3.35;;
78120;SDS011;67585;44.802;10.332;2024-02-14T09:57:22;9.10;;;3.60;;
78120;SDS011;67585;44.802;10.332;2024-02-14T09:59:48;12.93;;;3.40;;
78120;SDS011;67585;44.802;10.332;2024-02-14T10:02:16;12.15;;;3.58;;
78120;SDS011;67585;44.802;10.332;2024-02-14T10:04:42;12.48;;;3.85;;
78120;SDS011;67585;44.802;10.332;2024-02-14T10:07:08;13.05;;;4.05;;
78120;SDS011;67585;44.802;10.332;2024-02-14T10:09:40;10.70;;;4.57;;
78120;SDS011;67585;44.802;10.332;2024-02-14T10:14:34;9.88;;;3.58;;
78120;SDS011;67585;44.802;10.332;2024-02-14T10:17:00;15.35;;;3.88;;
78120;SDS011;67585;44.802;10.332;2024-02-14T10:19:25;9.20;;;3.97;;
78120;SDS011;67585;44.802;10.332;2024-02-14T10:24:24;12.50;;;4.07;;
78120;SDS011;67585;44.802;10.332;2024-02-14T10:26:51;8.57;;;3.38;;
78120;SDS011;67585;44.802;10.332;2024-02-14T10:29:17;12.20;;;3.50;;
78120;SDS011;67585;44.802;10.332;2024-02-14T10:31:42;9.07;;;3.38;;
78120;SDS011;67585;44.802;10.332;2024-02-14T10:34:07;7.80;;;3.13;;
78120;SDS011;67585;44.802;10.332;2024-02-14T10:36:35;9.30;;;3.20;;
78120;SDS011;67585;44.802;10.332;2024-02-14T10:39:01;8.65;;;3.40;;
78120;SDS011;67585;44.802;10.332;2024-02-14T10:41:30;10.85;;;3.55;;
78120;SDS011;67585;44.802;10.332;2024-02-14T10:44:02;8.82;;;3.38;;
78120;SDS011;67585;44.802;10.332;2024-02-14T10:46:31;11.43;;;3.55;;
78120;SDS011;67585;44.802;10.332;2024-02-14T10:49:02;8.52;;;3.28;;
78120;SDS011;67585;44.802;10.332;2024-02-14T10:51:30;8.10;;;3.40;;
78120;SDS011;67585;44.802;10.332;2024-02-14T10:53:58;11.68;;;4.15;;
78120;SDS011;67585;44.802;10.332;2024-02-14T10:56:27;9.70;;;3.50;;
78120;SDS011;67585;44.802;10.332;2024-02-14T10:58:55;11.20;;;3.40;;
78120;SDS011;67585;44.802;10.332;2024-02-14T11:01:24;9.90;;;3.63;;
78120;SDS011;67585;44.802;10.332;2024-02-14T11:03:51;10.25;;;3.92;;
78120;SDS011;67585;44.802;10.332;2024-02-14T11:06:17;12.48;;;4.75;;
78120;SDS011;67585;44.802;10.332;2024-02-14T11:08:54;9.65;;;3.28;;
78120;SDS011;67585;44.802;10.332;2024-02-14T11:11:28;9.73;;;3.50;;
78120;SDS011;67585;44.802;10.332;2024-02-14T11:13:55;11.57;;;3.80;;
78120;SDS011;67585;44.802;10.332;2024-02-14T11:16:25;9.52;;;3.50;;
78120;SDS011;67585;44.802;10.332;2024-02-14T11:18:53;11.25;;;4.40;;
78120;SDS011;67585;44.802;10.332;2024-02-14T11:21:19;10.55;;;3.33;;
78120;SDS011;67585;44.802;10.332;2024-02-14T11:23:53;13.70;;;4.15;;
78120;SDS011;67585;44.802;10.332;2024-02-14T11:26:19;11.90;;;4.75;;
78120;SDS011;67585;44.802;10.332;2024-02-14T11:28:45;11.75;;;4.72;;
78120;SDS011;67585;44.802;10.332;2024-02-14T11:31:15;10.77;;;4.28;;
78120;SDS011;67585;44.802;10.332;2024-02-14T11:33:42;11.57;;;4.50;;
78120;SDS011;67585;44.802;10.332;2024-02-14T11:36:10;13.43;;;4.88;;
78120;SDS011;67585;44.802;10.332;2024-02-14T11:38:36;12.68;;;4.75;;
78120;SDS011;67585;44.802;10.332;2024-02-14T11:41:02;13.82;;;5.38;;
78120;SDS011;67585;44.802;10.332;2024-02-14T11:43:28;14.90;;;5.43;;
78120;SDS011;67585;44.802;10.332;2024-02-14T11:45:54;15.25;;;5.57;;
78120;SDS011;67585;44.802;10.332;2024-02-14T11:48:20;14.40;;;5.90;;
78120;SDS011;67585;44.802;10.332;2024-02-14T11:50:46;16.05;;;5.90;;
78120;SDS011;67585;44.802;10.332;2024-02-14T11:53:12;15.98;;;6.88;;
78120;SDS011;67585;44.802;10.332;2024-02-14T11:55:43;17.17;;;6.70;;
78120;SDS011;67585;44.802;10.332;2024-02-14T11:58:11;16.73;;;6.53;;
78120;SDS011;67585;44.802;10.332;2024-02-14T12:00:38;16.10;;;6.13;;
78120;SDS011;67585;44.802;10.332;2024-02-14T12:03:07;20.00;;;7.10;;
78120;SDS011;67585;44.802;10.332;2024-02-14T12:05:45;17.92;;;6.80;;
78120;SDS011;67585;44.802;10.332;2024-02-14T12:08:12;16.25;;;6.93;;
78120;SDS011;67585;44.802;10.332;2024-02-14T12:10:39;14.68;;;6.07;;
78120;SDS011;67585;44.802;10.332;2024-02-14T12:13:13;15.80;;;4.97;;
78120;SDS011;67585;44.802;10.332;2024-02-14T12:15:41;13.07;;;5.28;;
78120;SDS011;67585;44.802;10.332;2024-02-14T12:18:10;14.88;;;5.40;;
78120;SDS011;67585;44.802;10.332;2024-02-14T12:20:36;12.48;;;5.28;;
78120;SDS011;67585;44.802;10.332;2024-02-14T12:23:02;16.90;;;5.55;;
78120;SDS011;67585;44.802;10.332;2024-02-14T12:25:29;16.17;;;5.88;;
78120;SDS011;67585;44.802;10.332;2024-02-14T12:27:56;16.40;;;5.57;;
78120;SDS011;67585;44.802;10.332;2024-02-14T12:30:22;15.48;;;6.07;;
78120;SDS011;67585;44.802;10.332;2024-02-14T12:32:59;15.13;;;5.65;;
78120;SDS011;67585;44.802;10.332;2024-02-14T12:35:26;18.60;;;6.13;;
78120;SDS011;67585;44.802;10.332;2024-02-14T12:37:51;16.67;;;5.75;;
78120;SDS011;67585;44.802;10.332;2024-02-14T12:40:19;19.17;;;6.88;;
78120;SDS011;67585;44.802;10.332;2024-02-14T12:42:45;15.25;;;6.78;;
78120;SDS011;67585;44.802;10.332;2024-02-14T12:45:10;15.45;;;5.18;;
78120;SDS011;67585;44.802;10.332;2024-02-14T12:47:36;17.52;;;5.93;;
78120;SDS011;67585;44.802;10.332;2024-02-14T12:50:02;17.70;;;6.35;;
78120;SDS011;67585;44.802;10.332;2024-02-14T12:52:27;17.88;;;7.00;;
78120;SDS011;67585;44.802;10.332;2024-02-14T12:54:53;16.10;;;6.65;;
78120;SDS011;67585;44.802;10.332;2024-02-14T12:57:18;23.00;;;6.40;;
78120;SDS011;67585;44.802;10.332;2024-02-14T12:59:46;18.30;;;6.72;;
78120;SDS011;67585;44.802;10.332;2024-02-14T13:02:11;17.20;;;7.22;;
78120;SDS011;67585;44.802;10.332;2024-02-14T13:04:37;19.33;;;6.65;;
78120;SDS011;67585;44.802;10.332;2024-02-14T13:07:03;15.27;;;5.95;;
78120;SDS011;67585;44.802;10.332;2024-02-14T13:09:29;18.58;;;5.90;;
78120;SDS011;67585;44.802;10.332;2024-02-14T13:11:54;16.63;;;6.28;;
78120;SDS011;67585;44.802;10.332;2024-02-14T13:14:20;18.80;;;7.38;;
78120;SDS011;67585;44.802;10.332;2024-02-14T13:16:46;20.52;;;6.88;;
78120;SDS011;67585;44.802;10.332;2024-02-14T13:19:11;19.23;;;8.10;;
78120;SDS011;67585;44.802;10.332;2024-02-14T13:21:36;17.65;;;6.88;;
78120;SDS011;67585;44.802;10.332;2024-02-14T13:24:02;19.88;;;6.88;;
78120;SDS011;67585;44.802;10.332;2024-02-14T13:26:28;17.85;;;6.20;;
78120;SDS011;67585;44.802;10.332;2024-02-14T13:28:54;19.17;;;6.35;;
78120;SDS011;67585;44.802;10.332;2024-02-14T13:31:20;17.75;;;6.53;;
78120;SDS011;67585;44.802;10.332;2024-02-14T13:33:46;19.77;;;7.68;;
78120;SDS011;67585;44.802;10.332;2024-02-14T13:36:12;20.27;;;7.80;;
78120;SDS011;67585;44.802;10.332;2024-02-14T13:38:40;19.13;;;6.60;;
78120;SDS011;67585;44.802;10.332;2024-02-14T13:41:05;18.83;;;6.32;;
78120;SDS011;67585;44.802;10.332;2024-02-14T13:43:31;22.08;;;7.15;;
78120;SDS011;67585;44.802;10.332;2024-02-14T13:45:56;22.88;;;7.65;;
78120;SDS011;67585;44.802;10.332;2024-02-14T13:48:22;19.73;;;8.20;;
78120;SDS011;67585;44.802;10.332;2024-02-14T13:50:47;20.23;;;7.57;;
78120;SDS011;67585;44.802;10.332;2024-02-14T13:55:39;22.27;;;7.93;;
78120;SDS011;67585;44.802;10.332;2024-02-14T13:58:05;21.42;;;8.27;;
78120;SDS011;67585;44.802;10.332;2024-02-14T14:00:39;21.08;;;7.80;;
78120;SDS011;67585;44.802;10.332;2024-02-14T14:03:04;16.98;;;6.38;;
78120;SDS011;67585;44.802;10.332;2024-02-14T14:05:30;19.45;;;6.90;;
78120;SDS011;67585;44.802;10.332;2024-02-14T14:07:55;16.45;;;6.47;;
78120;SDS011;67585;44.802;10.332;2024-02-14T14:10:22;17.30;;;7.05;;
78120;SDS011;67585;44.802;10.332;2024-02-14T14:12:50;17.38;;;6.00;;
78120;SDS011;67585;44.802;10.332;2024-02-14T14:15:15;18.63;;;6.15;;
78120;SDS011;67585;44.802;10.332;2024-02-14T14:17:41;20.63;;;6.95;;
78120;SDS011;67585;44.802;10.332;2024-02-14T14:20:06;16.30;;;5.95;;
78120;SDS011;67585;44.802;10.332;2024-02-14T14:22:33;19.73;;;7.10;;
78120;SDS011;67585;44.802;10.332;2024-02-14T14:24:58;19.33;;;6.10;;
78120;SDS011;67585;44.802;10.332;2024-02-14T14:27:23;13.85;;;5.75;;
78120;SDS011;67585;44.802;10.332;2024-02-14T14:29:49;16.08;;;6.50;;